createdAt,value
2024-05-09T00:05:17.046Z,7.65
2024-05-09T00:10:58.257Z,7.38
2024-05-09T00:16:38.855Z,7.24
2024-05-09T00:22:18.567Z,7.12
2024-05-09T00:27:59.905Z,7.05
2024-05-09T00:33:40.610Z,6.98
2024-05-09T00:39:20.628Z,6.91
2024-05-09T00:45:00.640Z,6.96
2024-05-09T00:50:42.594Z,6.93
2024-05-09T00:56:23.306Z,6.95
2024-05-09T01:02:03.851Z,6.94
2024-05-09T01:07:44.191Z,6.96
2024-05-09T01:13:24.259Z,6.99
2024-05-09T01:19:08.823Z,7.08
2024-05-09T01:24:49.229Z,7.05
2024-05-09T01:30:35.411Z,7.03
2024-05-09T01:36:13.090Z,6.96
2024-05-09T01:41:53.349Z,6.70
2024-05-09T01:47:33.389Z,6.73
2024-05-09T01:53:15.162Z,6.65
2024-05-09T01:58:55.184Z,6.44
2024-05-09T02:04:35.749Z,6.48
2024-05-09T02:10:20.495Z,6.53
2024-05-09T02:15:58.243Z,6.50
2024-05-09T02:21:38.414Z,6.35
2024-05-09T02:27:18.766Z,6.34
2024-05-09T02:32:59.434Z,6.37
2024-05-09T02:38:39.874Z,6.26
2024-05-09T02:44:20.816Z,6.21
2024-05-09T02:50:04.613Z,6.14
2024-05-09T02:55:45.995Z,6.05
2024-05-09T03:05:23.070Z,6.26
2024-05-09T03:11:03.497Z,6.14
2024-05-09T03:16:43.624Z,6.29
2024-05-09T03:22:23.929Z,6.22
2024-05-09T03:28:04.083Z,6.61
2024-05-09T03:33:44.017Z,6.69
2024-05-09T03:39:24.199Z,6.63
2024-05-09T03:45:07.558Z,6.85
2024-05-09T03:50:47.924Z,6.98
2024-05-09T03:56:28.939Z,7.06
2024-05-09T04:02:08.826Z,6.98
2024-05-09T04:07:49.139Z,7.10
2024-05-09T04:13:29.437Z,7.24
2024-05-09T04:19:09.508Z,7.23
2024-05-09T04:24:50.185Z,7.40
2024-05-09T04:30:37.640Z,7.38
2024-05-09T04:36:13.255Z,7.63
2024-05-09T04:41:53.557Z,7.69
2024-05-09T04:47:33.386Z,7.87
2024-05-09T04:53:17.391Z,8.21
2024-05-09T04:58:57.422Z,8.11
2024-05-09T05:05:40.734Z,8.49
2024-05-09T05:11:21.213Z,8.32
2024-05-09T05:17:01.206Z,8.85
2024-05-09T05:22:42.935Z,8.96
2024-05-09T05:28:23.606Z,9.30
2024-05-09T05:34:04.266Z,9.47
2024-05-09T05:39:44.520Z,9.62
2024-05-09T05:45:26.579Z,10.14
2024-05-09T05:51:07.221Z,10.32
2024-05-09T05:56:47.448Z,10.49
2024-05-09T06:02:27.861Z,10.61
2024-05-09T06:08:08.555Z,10.95
2024-05-09T06:13:48.840Z,10.91
2024-05-09T06:19:29.310Z,10.90
2024-05-09T06:25:09.726Z,11.22
2024-05-09T06:30:49.824Z,10.90
2024-05-09T06:36:29.984Z,11.14
2024-05-09T06:42:10.299Z,11.66
2024-05-09T06:47:50.520Z,11.66
2024-05-09T06:53:30.457Z,12.01
2024-05-09T06:59:10.675Z,12.05
2024-05-09T07:04:50.765Z,12.60
2024-05-09T07:10:34.882Z,12.68
2024-05-09T07:16:12.205Z,12.52
2024-05-09T07:21:52.954Z,13.52
2024-05-09T07:27:34.475Z,12.94
2024-05-09T07:33:19.359Z,12.53
2024-05-09T07:39:00.154Z,12.77
2024-05-09T07:44:40.498Z,12.86
2024-05-09T07:56:02.186Z,12.53
2024-05-09T08:01:42.988Z,13.21
2024-05-09T08:07:23.428Z,13.16
2024-05-09T08:13:05.813Z,13.39
2024-05-09T08:18:46.445Z,13.36
2024-05-09T08:24:26.565Z,13.38
2024-05-09T08:30:10.212Z,13.52
2024-05-09T08:35:49.504Z,13.73
2024-05-09T08:41:31.972Z,14.54
2024-05-09T08:47:12.435Z,14.20
2024-05-09T08:52:52.374Z,14.50
2024-05-09T08:58:34.575Z,13.91
2024-05-09T09:05:40.046Z,15.24
2024-05-09T09:11:20.154Z,15.13
2024-05-09T09:17:00.736Z,14.59
2024-05-09T09:22:41.107Z,15.73
2024-05-09T09:28:22.540Z,15.66
2024-05-09T09:34:06.861Z,15.18
2024-05-09T09:39:49.155Z,15.45
2024-05-09T09:45:31.360Z,15.21
2024-05-09T09:51:11.146Z,15.61
2024-05-09T09:56:51.794Z,16.57
2024-05-09T10:02:32.182Z,15.97
2024-05-09T10:08:13.311Z,16.01
2024-05-09T10:13:54.283Z,15.87
2024-05-09T10:19:34.671Z,15.71
2024-05-09T10:25:15.740Z,16.01
2024-05-09T10:31:12.795Z,15.92
2024-05-09T10:36:55.388Z,16.01
2024-05-09T10:42:38.599Z,15.61
2024-05-09T10:48:20.892Z,16.36
2024-05-09T10:54:01.116Z,16.28
2024-05-09T10:59:45.035Z,17.23
2024-05-09T11:05:26.337Z,16.12
2024-05-09T11:11:07.452Z,15.96
2024-05-09T11:16:59.795Z,16.18
2024-05-09T11:22:40.116Z,16.77
2024-05-09T11:28:21.914Z,16.05
2024-05-09T11:34:01.813Z,16.04
2024-05-09T11:39:42.133Z,16.99
2024-05-09T11:45:22.204Z,15.86
2024-05-09T11:51:02.347Z,16.48
2024-05-09T11:56:43.288Z,16.77
2024-05-09T12:05:38.908Z,16.36
2024-05-09T12:11:19.351Z,16.44
2024-05-09T12:17:00.597Z,16.81
2024-05-09T12:22:40.765Z,16.73
2024-05-09T12:28:21.513Z,17.18
2024-05-09T12:34:01.779Z,16.90
2024-05-09T12:39:41.721Z,16.68
2024-05-09T12:45:22.072Z,16.53
2024-05-09T12:51:02.083Z,16.48
2024-05-09T12:56:42.197Z,16.60
2024-05-09T13:02:23.176Z,16.89
2024-05-09T13:08:04.123Z,17.27
2024-05-09T13:13:44.785Z,17.06
2024-05-09T13:19:24.950Z,17.09
2024-05-09T13:25:05.414Z,17.24
2024-05-09T13:30:45.194Z,17.69
2024-05-09T13:36:25.515Z,17.29
2024-05-09T13:42:06.494Z,16.81
2024-05-09T13:47:46.310Z,16.20
2024-05-09T13:53:26.417Z,16.77
2024-05-09T13:59:07.373Z,17.11
2024-05-09T14:04:47.420Z,16.71
2024-05-09T14:10:31.165Z,16.96
2024-05-09T14:16:09.947Z,17.11
2024-05-09T14:21:50.381Z,16.75
2024-05-09T14:27:31.632Z,17.82
2024-05-09T14:33:11.780Z,18.59
2024-05-09T14:38:52.388Z,17.96
2024-05-09T14:44:32.780Z,16.76
2024-05-09T14:50:19.603Z,17.02
2024-05-09T14:55:55.005Z,17.55
2024-05-09T15:05:26.827Z,17.81
2024-05-09T15:11:07.006Z,18.08
2024-05-09T15:16:48.091Z,18.35
2024-05-09T15:22:28.640Z,19.82
2024-05-09T15:28:08.966Z,18.88
2024-05-09T15:33:49.731Z,19.40
2024-05-09T15:39:30.072Z,18.20
2024-05-09T15:45:10.274Z,15.59
2024-05-09T15:50:50.714Z,15.59
2024-05-09T15:56:31.886Z,15.67
2024-05-09T16:02:12.516Z,16.21
2024-05-09T16:07:53.255Z,15.54
2024-05-09T16:13:33.274Z,15.16
2024-05-09T16:19:13.645Z,14.69
2024-05-09T16:24:54.457Z,16.57
2024-05-09T16:30:36.045Z,16.61
2024-05-09T16:36:17.066Z,16.16
2024-05-09T16:41:56.748Z,13.89
2024-05-09T16:47:36.959Z,13.09
2024-05-09T16:53:18.463Z,12.88
2024-05-09T16:58:58.882Z,12.52
2024-05-09T17:04:39.514Z,12.22
2024-05-09T17:10:26.940Z,12.10
2024-05-09T17:16:01.422Z,11.80
2024-05-09T17:21:41.356Z,11.71
2024-05-09T17:27:21.908Z,11.23
2024-05-09T17:33:02.701Z,11.17
2024-05-09T17:38:42.534Z,11.02
2024-05-09T17:44:22.401Z,10.78
2024-05-09T17:50:09.561Z,10.51
2024-05-09T17:55:48.103Z,10.26
2024-05-09T18:05:23.852Z,10.02
2024-05-09T18:11:04.240Z,9.65
2024-05-09T18:16:44.801Z,9.35
2024-05-09T18:22:25.180Z,9.11
2024-05-09T18:28:06.887Z,8.97
2024-05-09T18:33:47.002Z,8.79
2024-05-09T18:39:27.453Z,8.66
2024-05-09T18:45:07.903Z,8.52
2024-05-09T18:50:48.971Z,8.30
2024-05-09T18:56:29.058Z,8.07
2024-05-09T19:02:09.282Z,7.99
2024-05-09T19:07:49.448Z,7.85
2024-05-09T19:13:30.140Z,7.74
2024-05-09T19:19:10.898Z,7.58
2024-05-09T19:24:51.403Z,7.48
2024-05-09T19:30:38.636Z,7.32
2024-05-09T19:36:13.503Z,7.16
2024-05-09T19:41:53.169Z,7.02
2024-05-09T19:47:33.791Z,6.90
2024-05-09T19:53:14.209Z,6.75
2024-05-09T19:58:55.278Z,6.58
2024-05-09T20:04:35.621Z,6.45
2024-05-09T20:10:23.342Z,6.28
2024-05-09T20:15:58.184Z,6.25
2024-05-09T20:21:42.749Z,6.19
2024-05-09T20:27:23.206Z,5.96
2024-05-09T20:33:06.327Z,5.86
2024-05-09T20:38:46.693Z,5.68
2024-05-09T20:44:27.543Z,5.58
2024-05-09T20:50:19.682Z,5.49
2024-05-09T20:55:51.510Z,5.43
2024-05-09T21:05:56.859Z,5.35
2024-05-09T21:11:36.956Z,5.12
2024-05-09T21:17:16.888Z,5.07
2024-05-09T21:22:59.705Z,5.04
2024-05-09T21:28:39.845Z,4.98
2024-05-09T21:34:20.155Z,4.89
2024-05-09T21:40:00.686Z,4.71
2024-05-09T21:45:41.095Z,4.53
2024-05-09T21:51:21.425Z,4.53
2024-05-09T21:57:01.948Z,4.40
2024-05-09T22:02:41.982Z,4.42
2024-05-09T22:08:21.617Z,4.36
2024-05-09T22:14:01.900Z,4.21
2024-05-09T22:19:48.678Z,4.11
2024-05-09T22:25:31.080Z,3.99
2024-05-09T22:31:11.658Z,3.91
2024-05-09T22:36:51.895Z,3.82
2024-05-09T22:42:32.290Z,3.80
2024-05-09T22:48:12.392Z,3.70
2024-05-09T22:53:52.644Z,3.61
2024-05-09T22:59:33.476Z,3.53
2024-05-09T23:05:13.834Z,3.41
2024-05-09T23:10:53.986Z,3.33
2024-05-09T23:16:34.042Z,3.21
2024-05-09T23:22:14.065Z,3.12
2024-05-09T23:27:53.867Z,2.97
2024-05-09T23:33:34.869Z,2.92
2024-05-09T23:39:15.248Z,2.86
2024-05-09T23:44:57.491Z,2.72
2024-05-09T23:50:39.221Z,2.65
2024-05-09T23:56:21.168Z,2.58
